Airfield :
LOGIN :

Register | Disclaimer

   EN    FR    IT 

 










Legend :    VFR   Marginal VFR   IFR   Intensive IFR   Very Intensive IFR
Visi :
Ceiling :
>= 8 km
>= 3000ft
5 to 8 km
1000 to 3000 ft
1500m to 5 km
500 to 1000 ft
800 to 1500m
200 to 500 ft
< 800m
< 200 ft
Symbols :   Thunderstorms  Fog  Heavy snow  Heavy precipitations  Wind > 20 kt
SIGMETs :     Misc.  Thunderstorms  Icing  Turbulence  Mountain Waves  Volcanic Ashes






- Airport Elevation : 122 ft
- IATA code : TXL


EDDT - Berlin Tegel Int.

CURRENT METAR :
  • 112150Z 18007KT 150V210 9999 BKN028 04/M03 Q1005 NOSIG

EXPIRED METARs :
  • 112120Z 19007KT 9999 SCT028 04/M03 Q1005 NOSIG
  • 112050Z 18007KT 9999 FEW030 04/M03 Q1005 NOSIG
  • 112020Z 17006KT CAVOK 04/M03 Q1005 NOSIG
  • 111950Z 16005KT CAVOK 04/M02 Q1006 NOSIG
  • 111920Z 15006KT CAVOK 04/M02 Q1006 NOSIG

TAF TAF EDDT
Valid from the 11 at 18:00 until the 12 at 18:00 UTC


111700Z 1118/1218 16010KT 9999 BKN030
BECMG 1121/1124 22005KT 4000 -RADZ BKN008
TEMPO 1123/1208 2000 -RASN BKN004
BECMG 1207/1210 6000 BKN012
BECMG 1210/1213 BKN015



MET'MAP, your aeronautical weather chart ! - Copyright ORBIFLY December 2007 - Disclaimer

ORBIFLY MET'MAP TEAM :

Programming & Development : Alexandra Zaïnal
Concept & original design : Baudouin d'Aumeries
Assistance for programming : Marc-Olivier Méhu
Technical & hardware support : Manuel Goepfert

Contact : metmap@orbifly.com




SOURCES & CREDITS :

   NOAA